Camano City, Washington
Current Conditions -  °F | °C
As of 10:55 PM on Sunday 21 Dec 2014 (Local Time) from KAWO Reporting Station
Broken Clouds Broken Clouds  
Wind Chill: 45°   Ceiling: 1700
Heat Index: 45°   Visibility: 4mi
Dew Point: 39°   Wind: 0mph
Humidity: 81%   Direction: NA
Pressure: 30.11"   Gusts: NA
Location:  48.2145°N, 122.297°W
Report Text: KAWO 220655Z AUTO 00000KT 4SM BKN017 BKN050 07/04 A3011 RMK AO1
Loading
Personal Weather Stations






























Interactive Weather Map New forecast layout! Learn more

10-Day Weather Forecast

Advertisements
Track Severe Weather on mobile